KBYG/BYG METAR and TAF weather

Enter ICAO airport designator
Station Type Date Time Source
KBYG METAR 2019/08/21 02:53 UTC NOAA

KBYG 210253Z AUTO 17010G19KT 10SM SCT110 23/13 A3018 RMK AO2 LTG DSNT S AND SW SLP158 T02330128 53007


Station Type Date Time Source
KBYG Decoded METAR 2019/08/21 02:53 UTC NOAA

Station name not available
Aug 20, 2019 - 10:53 PM EDT / 2019.08.21 0253 UTC
Wind: from the S (170 degrees) at 12 MPH (10 KT) gusting to 22 MPH (19 KT):0
Visibility: 10 mile(s):0
Sky conditions: partly cloudy
Weather: Lightning observed
Temperature: 73.9 F (23.3 C)
Dew Point: 55.0 F (12.8 C)
Relative Humidity: 51%
Pressure (altimeter): 30.18 in. Hg (1022 hPa)
Pressure tendency: 0.02 inches (0.7 hPa) higher than three hours ago
ob: KBYG 210253Z AUTO 17010G19KT 10SM SCT110 23/13 A3018 RMK AO2 LTG DSNT S AND SW SLP158 T02330128 53007
cycle: 3

Station Type Date Time Source
KBYG TAF UTC NOAA

Error!

Example: see airport list